createdAt,value
2019-05-26T00:00:03.433Z,6.98
2019-05-26T00:01:03.092Z,6.11
2019-05-26T00:02:03.012Z,5.71
2019-05-26T00:03:03.510Z,6.06
2019-05-26T00:04:02.790Z,6.17
2019-05-26T00:05:02.398Z,5.78
2019-05-26T00:06:03.183Z,6.01
2019-05-26T00:07:02.777Z,6.22
2019-05-26T00:08:02.463Z,5.98
2019-05-26T00:09:03.490Z,5.72
2019-05-26T00:10:03.042Z,5.32
2019-05-26T00:11:01.448Z,5.74
2019-05-26T00:12:03.009Z,5.75
2019-05-26T00:13:02.691Z,6.45
2019-05-26T00:14:03.468Z,5.64
2019-05-26T00:15:03.073Z,5.26
2019-05-26T00:16:02.793Z,5.55
2019-05-26T00:17:03.222Z,5.15
2019-05-26T00:18:02.897Z,5.36
2019-05-26T00:19:02.391Z,5.15
2019-05-26T00:20:03.462Z,5.84
2019-05-26T00:21:02.934Z,5.79
2019-05-26T00:22:02.429Z,4.89
2019-05-26T00:23:03.155Z,4.95
2019-05-26T00:24:02.597Z,5.01
2019-05-26T00:25:03.302Z,5.47
2019-05-26T00:26:02.749Z,5.11
2019-05-26T00:27:02.578Z,4.95
2019-05-26T00:28:03.123Z,4.57
2019-05-26T00:29:02.627Z,4.79
2019-05-26T00:30:03.393Z,4.65
2019-05-26T00:31:02.883Z,5.04
2019-05-26T00:32:02.621Z,4.41
2019-05-26T00:33:03.422Z,4.65
2019-05-26T00:34:02.900Z,4.56
2019-05-26T00:35:02.583Z,4.52
2019-05-26T00:36:03.026Z,5.04
2019-05-26T00:37:02.795Z,4.46
2019-05-26T00:38:03.357Z,4.84
2019-05-26T00:39:03.123Z,4.42
2019-05-26T00:40:02.962Z,4.68
2019-05-26T00:41:02.487Z,4.68
2019-05-26T00:42:02.978Z,4.35
2019-05-26T00:43:02.826Z,4.35
2019-05-26T00:44:03.213Z,4.65
2019-05-26T00:45:03.267Z,5.11
2019-05-26T00:46:03.265Z,5.11
2019-05-26T00:47:03.220Z,5
2019-05-26T00:48:02.890Z,5.06
2019-05-26T00:49:02.604Z,4.74
2019-05-26T00:50:03.268Z,4.71
2019-05-26T00:51:03.084Z,4.38
2019-05-26T00:52:02.434Z,4.88
2019-05-26T00:53:03.119Z,4.88
2019-05-26T00:54:02.648Z,4.44
2019-05-26T00:55:03.531Z,3.93
2019-05-26T00:56:03.112Z,4.77
2019-05-26T00:57:02.799Z,4.19
2019-05-26T00:58:02.564Z,4.54
2019-05-26T00:59:03.128Z,4.58
2019-05-26T01:00:02.795Z,4.87
2019-05-26T01:01:03.416Z,4.58
2019-05-26T01:02:02.921Z,4.72
2019-05-26T01:03:02.728Z,4.79
2019-05-26T01:04:03.244Z,4.39
2019-05-26T01:05:03.087Z,4.43
2019-05-26T01:06:02.622Z,4.49
2019-05-26T01:07:03.272Z,3.98
2019-05-26T01:08:06.986Z,5.1
2019-05-26T01:09:02.529Z,4.58
2019-05-26T01:10:03.571Z,4.89
2019-05-26T01:11:02.958Z,4.39
2019-05-26T01:12:02.510Z,4.94
2019-05-26T01:13:02.994Z,4.14
2019-05-26T01:14:02.562Z,4.47
2019-05-26T01:15:02.689Z,4.51
2019-05-26T01:16:02.974Z,4.76
2019-05-26T01:17:03.299Z,4.5
2019-05-26T01:18:04.152Z,4.52
2019-05-26T01:19:02.533Z,4.11
2019-05-26T01:20:03.113Z,4.05
2019-05-26T01:21:02.611Z,4.53
2019-05-26T01:22:02.841Z,4.32
2019-05-26T01:23:03.101Z,4.66
2019-05-26T01:24:02.693Z,4.74
2019-05-26T01:25:03.238Z,4.71
2019-05-26T01:26:03.064Z,4.75
2019-05-26T01:27:02.721Z,4.47
2019-05-26T01:28:03.459Z,4.47
2019-05-26T01:29:03.486Z,4.44
2019-05-26T01:30:02.708Z,4.48
2019-05-26T01:31:03.270Z,4.48
2019-05-26T01:32:02.794Z,4.09
2019-05-26T01:33:02.457Z,4.94
2019-05-26T01:34:02.795Z,4.94
2019-05-26T01:35:02.860Z,4.33
2019-05-26T01:36:03.265Z,4.71
2019-05-26T01:37:02.959Z,5.25
2019-05-26T01:38:02.796Z,5.25
2019-05-26T01:39:02.597Z,5.07
2019-05-26T01:40:02.631Z,5.34
2019-05-26T01:41:02.482Z,5.64
2019-05-26T01:42:03.225Z,4.88
2019-05-26T01:43:02.369Z,5
2019-05-26T01:44:03.164Z,5.35
2019-05-26T01:45:02.960Z,5.09
2019-05-26T01:46:02.469Z,4.81
2019-05-26T01:47:03.209Z,4.61
2019-05-26T01:48:02.863Z,5.26
2019-05-26T01:49:02.439Z,4.75
2019-05-26T01:50:03.287Z,4.97
2019-05-26T01:51:02.941Z,4.86
2019-05-26T01:52:02.950Z,5.25
2019-05-26T01:53:02.919Z,4.36
2019-05-26T01:54:02.516Z,5.25
2019-05-26T01:55:03.306Z,4.91
2019-05-26T01:56:02.708Z,4.85
2019-05-26T01:57:03.342Z,4.62
2019-05-26T01:58:03.010Z,4.28
2019-05-26T01:59:02.868Z,4.51
2019-05-26T02:00:02.424Z,4.64
2019-05-26T02:01:03.213Z,4.12
2019-05-26T02:02:02.982Z,4.49
2019-05-26T02:03:03.296Z,4.47
2019-05-26T02:04:02.918Z,4.86
2019-05-26T02:05:02.501Z,4.46
2019-05-26T02:06:03.232Z,4.25
2019-05-26T02:07:02.933Z,4.91
2019-05-26T02:08:02.392Z,4.44
2019-05-26T02:09:03.202Z,4.85
2019-05-26T02:10:02.927Z,4.85
2019-05-26T02:11:03.182Z,4.85
2019-05-26T02:12:03.263Z,4.71
2019-05-26T02:13:02.715Z,5.18
2019-05-26T02:14:02.252Z,4.39
2019-05-26T02:15:03.077Z,4.7
2019-05-26T02:16:02.787Z,4.62
2019-05-26T02:17:03.111Z,5.56
2019-05-26T02:18:02.994Z,4.81
2019-05-26T02:19:02.579Z,4.46
2019-05-26T02:20:03.282Z,4.61
2019-05-26T02:21:01.708Z,5.04
2019-05-26T02:22:03.474Z,4.84
2019-05-26T02:23:03.112Z,4.87
2019-05-26T02:24:02.915Z,4.53
2019-05-26T02:25:03.434Z,5.27
2019-05-26T02:26:03.121Z,5.09
2019-05-26T02:27:03.287Z,4.7
2019-05-26T02:28:02.997Z,5.28
2019-05-26T02:29:02.563Z,5.99
2019-05-26T02:30:02.767Z,4.96
2019-05-26T02:31:02.868Z,5.84
2019-05-26T02:32:02.410Z,5.57
2019-05-26T02:33:03.281Z,5.41
2019-05-26T02:34:02.524Z,5.42
2019-05-26T02:35:03.205Z,5.03
2019-05-26T02:36:03.085Z,5.63
2019-05-26T02:37:02.657Z,6.12
2019-05-26T02:38:03.435Z,5.15
2019-05-26T02:39:03.777Z,5.61
2019-05-26T02:40:03.411Z,5.35
2019-05-26T02:41:02.739Z,5.76
2019-05-26T02:42:02.709Z,5.2
2019-05-26T02:43:03.261Z,5.78
2019-05-26T02:44:02.771Z,5.12
2019-05-26T02:45:02.606Z,6.1
2019-05-26T02:46:02.931Z,5.7
2019-05-26T02:47:02.504Z,5.83
2019-05-26T02:48:03.107Z,5.71
2019-05-26T02:49:02.854Z,5.31
2019-05-26T02:50:02.635Z,5.36
2019-05-26T02:51:03.438Z,5.71
2019-05-26T02:52:02.734Z,5.77
2019-05-26T02:53:02.433Z,6.43
2019-05-26T02:54:03.014Z,5.38
2019-05-26T02:55:02.989Z,5.38
2019-05-26T02:56:02.521Z,4.89
2019-05-26T02:57:03.203Z,4.89
2019-05-26T02:58:02.815Z,5.75
2019-05-26T02:59:02.486Z,5.52
2019-05-26T03:00:02.964Z,5.52
2019-05-26T03:01:02.694Z,6.11
2019-05-26T03:02:04.969Z,6.07
2019-05-26T03:03:02.977Z,5.79
2019-05-26T03:04:02.547Z,5.24
2019-05-26T03:05:03.317Z,6.23
2019-05-26T03:06:02.724Z,5.8
2019-05-26T03:07:02.468Z,6.29
2019-05-26T03:08:02.944Z,5.71
2019-05-26T03:09:23.431Z,6.02
2019-05-26T03:10:03.445Z,5.74
2019-05-26T03:11:02.736Z,5.96
2019-05-26T03:12:03.255Z,6.64
2019-05-26T03:13:02.710Z,5.36
2019-05-26T03:14:03.369Z,6.09
2019-05-26T03:15:02.899Z,5.94
2019-05-26T03:16:02.891Z,5.94
2019-05-26T03:17:02.395Z,5.88
2019-05-26T03:18:02.873Z,6.46
2019-05-26T03:19:02.751Z,6.35
2019-05-26T03:20:03.249Z,6.44
2019-05-26T03:21:02.934Z,6.25
2019-05-26T03:22:02.518Z,6.14
2019-05-26T03:23:02.936Z,5.63
2019-05-26T03:24:02.364Z,6.57
2019-05-26T03:25:03.314Z,6.25
2019-05-26T03:26:03.167Z,7.11
2019-05-26T03:27:02.632Z,5.89
2019-05-26T03:28:03.335Z,6.7
2019-05-26T03:29:03.100Z,6.35
2019-05-26T03:30:03.312Z,5.98
2019-05-26T03:31:02.931Z,6.31
2019-05-26T03:32:02.729Z,6.2
2019-05-26T03:33:02.400Z,6.24
2019-05-26T03:34:03.631Z,5.63
2019-05-26T03:35:02.839Z,5.48
2019-05-26T03:36:03.152Z,6.61
2019-05-26T03:37:02.961Z,6.09
2019-05-26T03:38:02.286Z,6.19
2019-05-26T03:39:03.441Z,6.26
2019-05-26T03:40:02.974Z,5.85
2019-05-26T03:41:02.553Z,6.75
2019-05-26T03:42:03.407Z,6.18
2019-05-26T03:43:02.649Z,6.27
2019-05-26T03:44:03.085Z,6.19
2019-05-26T03:45:03.263Z,6.19
2019-05-26T03:46:02.540Z,6.82
2019-05-26T03:47:03.220Z,6.66
2019-05-26T03:48:02.980Z,6.66
2019-05-26T03:49:02.662Z,7.03
2019-05-26T03:50:03.339Z,7.03
2019-05-26T03:51:02.804Z,6.46
2019-05-26T03:52:02.668Z,6.22
2019-05-26T03:53:03.195Z,6.08
2019-05-26T03:54:02.799Z,6.61
2019-05-26T03:55:03.477Z,6.45
2019-05-26T03:56:03.245Z,6.44
2019-05-26T03:57:02.867Z,6.28
2019-05-26T03:58:02.411Z,6.35
2019-05-26T03:59:02.933Z,7.09
2019-05-26T04:00:02.627Z,6.49
2019-05-26T04:01:03.404Z,6.91
2019-05-26T04:02:02.761Z,6.92
2019-05-26T04:03:02.925Z,7.02
2019-05-26T04:04:02.439Z,7.12
2019-05-26T04:05:03.404Z,7.04
2019-05-26T04:06:02.824Z,7.19
2019-05-26T04:07:03.756Z,7.13
2019-05-26T04:08:05.625Z,7.15
2019-05-26T04:09:02.642Z,7.15
2019-05-26T04:10:06.357Z,6.57
2019-05-26T04:11:02.700Z,6.87
2019-05-26T04:12:03.340Z,6.61
2019-05-26T04:13:03.104Z,7.83
2019-05-26T04:14:02.529Z,7.26
2019-05-26T04:15:03.321Z,7.37
2019-05-26T04:16:03.118Z,7.64
2019-05-26T04:17:02.685Z,7.47
2019-05-26T04:18:03.356Z,8.11
2019-05-26T04:19:02.985Z,9.14
2019-05-26T04:20:02.689Z,9.33
2019-05-26T04:21:03.230Z,9.47
2019-05-26T04:22:02.822Z,10.08
2019-05-26T04:23:02.572Z,10.37
2019-05-26T04:24:03.080Z,11.55
2019-05-26T04:25:03.040Z,12.42
2019-05-26T04:26:03.309Z,11.94
2019-05-26T04:27:03.329Z,12.7
2019-05-26T04:28:02.781Z,12.49
2019-05-26T04:29:03.362Z,11.93
2019-05-26T04:30:02.927Z,13.07
2019-05-26T04:31:02.607Z,13.96
2019-05-26T04:32:02.898Z,12.95
2019-05-26T04:33:02.689Z,15.21
2019-05-26T04:34:02.549Z,14.07
2019-05-26T04:35:03.293Z,12.47
2019-05-26T04:36:02.593Z,15.79
2019-05-26T04:37:02.279Z,14.46
2019-05-26T04:38:03.126Z,14.46
2019-05-26T04:39:02.541Z,13.95
2019-05-26T04:40:02.557Z,13.95
2019-05-26T04:41:03.286Z,15.17
2019-05-26T04:42:02.757Z,13.93
2019-05-26T04:43:03.423Z,13.58
2019-05-26T04:44:03.003Z,14.61
2019-05-26T04:45:02.687Z,14.45
2019-05-26T04:46:03.259Z,15.31
2019-05-26T04:47:02.986Z,15.04
2019-05-26T04:48:03.456Z,15.09
2019-05-26T04:49:02.818Z,15.4
2019-05-26T04:50:02.535Z,16.83
2019-05-26T04:51:03.334Z,14.89
2019-05-26T04:52:03.152Z,16.04
2019-05-26T04:53:07.417Z,16.29
2019-05-26T04:54:03.216Z,16.03
2019-05-26T04:55:03.016Z,15.91
2019-05-26T04:56:02.491Z,16.58
2019-05-26T04:57:03.118Z,17.01
2019-05-26T04:58:03.063Z,15.77
2019-05-26T04:59:02.545Z,17.22
2019-05-26T05:00:03.454Z,15.63
2019-05-26T05:01:02.749Z,16.85
2019-05-26T05:02:02.604Z,15.79
2019-05-26T05:03:03.248Z,16.41
2019-05-26T05:04:02.812Z,17.26
2019-05-26T05:05:03.399Z,16.57
2019-05-26T05:06:03.098Z,16.32
2019-05-26T05:07:03.315Z,16.12
2019-05-26T05:08:03.097Z,15.78
2019-05-26T05:09:02.831Z,16.86
2019-05-26T05:10:03.012Z,15.63
2019-05-26T05:11:02.780Z,16.67
2019-05-26T05:12:02.475Z,16.09
2019-05-26T05:13:02.891Z,17.24
2019-05-26T05:14:02.647Z,17.01
2019-05-26T05:15:02.796Z,17.1
2019-05-26T05:16:02.781Z,17.55
2019-05-26T05:17:03.193Z,16.71
2019-05-26T05:18:02.965Z,17.38
2019-05-26T05:19:02.611Z,17.78
2019-05-26T05:20:03.119Z,17.17
2019-05-26T05:21:02.814Z,16.48
2019-05-26T05:22:02.549Z,16.03
2019-05-26T05:23:03.272Z,17.32
2019-05-26T05:24:02.962Z,16.54
2019-05-26T05:25:02.495Z,16.59
2019-05-26T05:26:02.999Z,16.08
2019-05-26T05:27:02.716Z,16.65
2019-05-26T05:28:03.417Z,17.21
2019-05-26T05:29:03.101Z,17.21
2019-05-26T05:30:03.050Z,15.78
2019-05-26T05:31:03.201Z,16.27
2019-05-26T05:32:03.025Z,16.27
2019-05-26T05:33:02.355Z,17.38
2019-05-26T05:34:03.369Z,17.18
2019-05-26T05:35:02.776Z,16.56
2019-05-26T05:36:02.764Z,16.57
2019-05-26T05:37:03.362Z,17.45
2019-05-26T05:38:02.833Z,15.58
2019-05-26T05:39:02.506Z,16.69
2019-05-26T05:40:03.147Z,15.57
2019-05-26T05:41:02.911Z,16.31
2019-05-26T05:42:02.748Z,16.95
2019-05-26T05:43:03.243Z,17.07
2019-05-26T05:44:02.717Z,16.77
2019-05-26T05:45:02.391Z,16.55
2019-05-26T05:46:02.940Z,17.09
2019-05-26T05:47:02.978Z,16.5
2019-05-26T05:48:02.530Z,16.29
2019-05-26T05:49:03.340Z,15.92
2019-05-26T05:50:02.816Z,16.22
2019-05-26T05:51:02.305Z,16.24
2019-05-26T05:52:02.901Z,16.98
2019-05-26T05:53:02.354Z,17.22
2019-05-26T05:54:03.261Z,16.44
2019-05-26T05:55:02.773Z,16.05
2019-05-26T05:56:02.449Z,15.44
2019-05-26T05:57:02.817Z,15.59
2019-05-26T05:58:02.429Z,15.42
2019-05-26T05:59:03.053Z,15.67
2019-05-26T06:00:03.085Z,14.65
2019-05-26T06:01:02.401Z,15.69
2019-05-26T06:02:03.140Z,15.44
2019-05-26T06:03:02.508Z,15.6
2019-05-26T06:04:02.671Z,15.5
2019-05-26T06:05:02.952Z,15.9
2019-05-26T06:06:02.566Z,15.22
2019-05-26T06:07:03.646Z,16.77
2019-05-26T06:08:03.035Z,15.95
2019-05-26T06:09:02.433Z,15.19
2019-05-26T06:10:03.070Z,16.09
2019-05-26T06:11:17.016Z,16.32
2019-05-26T06:12:03.200Z,16.24
2019-05-26T06:13:02.441Z,15.31
2019-05-26T06:14:03.406Z,15.17
2019-05-26T06:15:03.045Z,15.43
2019-05-26T06:16:03.193Z,16.19
2019-05-26T06:17:02.802Z,16.08
2019-05-26T06:18:02.659Z,16.08
2019-05-26T06:19:03.064Z,16.76
2019-05-26T06:20:02.822Z,16.76
2019-05-26T06:21:02.802Z,15.94
2019-05-26T06:22:02.575Z,16.06
2019-05-26T06:23:02.377Z,16.06
2019-05-26T06:24:03.068Z,14.92
2019-05-26T06:25:02.944Z,15.54
2019-05-26T06:26:02.439Z,15.54
2019-05-26T06:27:03.170Z,16.58
2019-05-26T06:28:02.678Z,16.28
2019-05-26T06:29:03.125Z,15.97
2019-05-26T06:30:02.706Z,15.46
2019-05-26T06:31:02.632Z,15.88
2019-05-26T06:32:03.570Z,15.06
2019-05-26T06:33:02.495Z,16.19
2019-05-26T06:34:02.746Z,15.12
2019-05-26T06:35:03.307Z,15.78
2019-05-26T06:36:02.583Z,15.7
2019-05-26T06:37:03.176Z,15.86
2019-05-26T06:38:03.111Z,16.37
2019-05-26T06:39:02.662Z,15.96
2019-05-26T06:40:03.212Z,15.09
2019-05-26T06:41:02.590Z,15.48
2019-05-26T06:42:03.346Z,15.13
2019-05-26T06:43:02.801Z,15.3
2019-05-26T06:44:02.577Z,15.72
2019-05-26T06:45:03.171Z,15.61
2019-05-26T06:46:02.710Z,16.61
2019-05-26T06:47:02.493Z,14.89
2019-05-26T06:48:02.850Z,16.63
2019-05-26T06:49:02.778Z,15.94
2019-05-26T06:50:02.997Z,15.44
2019-05-26T06:51:03.082Z,15.64
2019-05-26T06:52:02.592Z,15.72
2019-05-26T06:53:03.468Z,15.89
2019-05-26T06:54:02.798Z,15.35
2019-05-26T06:55:02.405Z,15.36
2019-05-26T06:56:03.053Z,15.1
2019-05-26T06:57:02.839Z,15.56
2019-05-26T06:58:02.673Z,14.65
2019-05-26T06:59:03.312Z,15.29
2019-05-26T07:00:02.927Z,14.6
2019-05-26T07:01:03.754Z,14.52
2019-05-26T07:02:03.327Z,15.35
2019-05-26T07:03:03.206Z,15.51
2019-05-26T07:04:03.333Z,14.98
2019-05-26T07:05:02.952Z,16.22
2019-05-26T07:06:02.523Z,16.22
2019-05-26T07:07:03.139Z,15.89
2019-05-26T07:08:02.510Z,15.14
2019-05-26T07:09:03.396Z,15.14
2019-05-26T07:10:02.776Z,14.89
2019-05-26T07:11:03.136Z,14.89
2019-05-26T07:12:02.843Z,14.41
2019-05-26T07:13:02.549Z,14.62
2019-05-26T07:14:03.140Z,14.77
2019-05-26T07:15:03.123Z,14.31
2019-05-26T07:16:02.301Z,14.4
2019-05-26T07:17:03.163Z,14.72
2019-05-26T07:18:02.478Z,14.54
2019-05-26T07:19:03.154Z,15.7
2019-05-26T07:20:03.010Z,14.76
2019-05-26T07:21:03.337Z,14.63
2019-05-26T07:22:03.165Z,14.79
2019-05-26T07:23:03.119Z,14.4
2019-05-26T07:24:02.546Z,14.72
2019-05-26T07:25:03.363Z,14.7
2019-05-26T07:26:02.674Z,13.71
2019-05-26T07:27:02.557Z,14.25
2019-05-26T07:28:04.279Z,14.95
2019-05-26T07:29:02.868Z,14.95
2019-05-26T07:30:03.532Z,13.9
2019-05-26T07:31:02.991Z,14.53
2019-05-26T07:32:02.584Z,14.57
2019-05-26T07:33:02.619Z,14.11
2019-05-26T07:34:03.104Z,14.25
2019-05-26T07:35:02.626Z,13.66
2019-05-26T07:36:03.152Z,13.76
2019-05-26T07:37:02.617Z,12.99
2019-05-26T07:38:03.299Z,15.3
2019-05-26T07:39:02.825Z,14.42
2019-05-26T07:40:02.824Z,14.62
2019-05-26T07:41:03.516Z,14.38
2019-05-26T07:42:11.204Z,13.72
2019-05-26T07:43:02.504Z,12.94
2019-05-26T07:44:03.090Z,14.25
2019-05-26T07:45:02.844Z,13.71
2019-05-26T07:46:02.611Z,13.39
2019-05-26T07:47:03.006Z,13.15
2019-05-26T07:48:02.866Z,13.16
2019-05-26T07:49:02.325Z,13.88
2019-05-26T07:50:03.519Z,14.75
2019-05-26T07:51:02.701Z,13.28
2019-05-26T07:52:03.099Z,13.3
2019-05-26T07:53:03.112Z,13.42
2019-05-26T07:54:03.302Z,12.71
2019-05-26T07:55:03.624Z,13.62
2019-05-26T07:56:03.192Z,13.05
2019-05-26T07:57:02.725Z,13.05
2019-05-26T07:58:02.656Z,12.69
2019-05-26T07:59:03.169Z,12.14
2019-05-26T08:00:02.828Z,12.14
2019-05-26T08:01:03.285Z,12.59
2019-05-26T08:02:02.981Z,12.59
2019-05-26T08:03:03.390Z,12.25
2019-05-26T08:04:02.898Z,11.46
2019-05-26T08:05:02.891Z,12.75
2019-05-26T08:06:02.625Z,11.53
2019-05-26T08:07:03.078Z,11.87
2019-05-26T08:08:13.492Z,12.1
2019-05-26T08:09:03.172Z,11.81
2019-05-26T08:10:03.140Z,11.59
2019-05-26T08:11:02.588Z,12.34
2019-05-26T08:12:02.910Z,12.07
2019-05-26T08:13:02.845Z,11.54
2019-05-26T08:14:02.603Z,11.42
2019-05-26T08:15:02.643Z,11.89
2019-05-26T08:16:02.592Z,11.76
2019-05-26T08:17:02.572Z,12.32
2019-05-26T08:18:03.159Z,11.36
2019-05-26T08:19:02.722Z,10.98
2019-05-26T08:20:03.363Z,11.81
2019-05-26T08:21:03.017Z,11.24
2019-05-26T08:22:02.448Z,11.44
2019-05-26T08:23:03.425Z,10.5
2019-05-26T08:24:02.945Z,9.83
2019-05-26T08:25:02.723Z,11.04
2019-05-26T08:26:03.343Z,10.24
2019-05-26T08:27:02.827Z,9.93
2019-05-26T08:28:02.659Z,11.79
2019-05-26T08:29:03.356Z,11.05
2019-05-26T08:30:02.928Z,10.76
2019-05-26T08:31:02.526Z,10.78
2019-05-26T08:32:02.913Z,10.68
2019-05-26T08:33:02.623Z,9.86
2019-05-26T08:34:03.089Z,9.55
2019-05-26T08:35:03.036Z,10.85
2019-05-26T08:36:02.646Z,9.41
2019-05-26T08:37:03.221Z,9.8
2019-05-26T08:38:02.887Z,9.59
2019-05-26T08:39:03.316Z,9.04
2019-05-26T08:40:03.467Z,9.88
2019-05-26T08:41:02.966Z,9.88
2019-05-26T08:42:02.329Z,10.69
2019-05-26T08:43:03.121Z,9.52
2019-05-26T08:44:02.774Z,9.52
2019-05-26T08:45:03.412Z,9.26
2019-05-26T08:46:02.883Z,9.31
2019-05-26T08:47:03.371Z,9.31
2019-05-26T08:48:03.405Z,9.67
2019-05-26T08:49:02.680Z,10.28
2019-05-26T08:50:03.555Z,9.97
2019-05-26T08:51:03.012Z,9.24
2019-05-26T08:52:02.693Z,10.14
2019-05-26T08:53:03.329Z,9.62
2019-05-26T08:54:02.896Z,9.66
2019-05-26T08:55:02.497Z,9.41
2019-05-26T08:56:03.077Z,8.94
2019-05-26T08:57:02.691Z,9.55
2019-05-26T08:58:03.356Z,9.86
2019-05-26T08:59:02.542Z,9.37
2019-05-26T09:00:02.648Z,9.15
2019-05-26T09:01:03.097Z,8.71
2019-05-26T09:02:02.851Z,10.01
2019-05-26T09:03:02.388Z,8.95
2019-05-26T09:04:03.090Z,8.9
2019-05-26T09:05:02.933Z,9.09
2019-05-26T09:06:02.496Z,8.94
2019-05-26T09:07:03.045Z,9.71
2019-05-26T09:08:02.620Z,10.04
2019-05-26T09:09:03.280Z,9.52
2019-05-26T09:10:02.814Z,8.95
2019-05-26T09:11:03.263Z,7.18
2019-05-26T09:12:03.497Z,7.48
2019-05-26T09:13:02.642Z,7.95
2019-05-26T09:14:03.315Z,7.59
2019-05-26T09:15:03.122Z,7.91
2019-05-26T09:16:02.418Z,7.91
2019-05-26T09:17:03.107Z,7.88
2019-05-26T09:18:03.332Z,7.85
2019-05-26T09:19:02.509Z,7.85
2019-05-26T09:20:02.961Z,7.55
2019-05-26T09:21:02.651Z,8.22
2019-05-26T09:22:03.004Z,8.22
2019-05-26T09:23:02.881Z,7.64
2019-05-26T09:24:03.409Z,8.22
2019-05-26T09:25:03.162Z,7.98
2019-05-26T09:26:02.663Z,8.55
2019-05-26T09:27:03.361Z,7.84
2019-05-26T09:28:02.672Z,7.06
2019-05-26T09:29:03.072Z,6.7
2019-05-26T09:30:02.998Z,7.37
2019-05-26T09:31:02.548Z,7.75
2019-05-26T09:32:03.302Z,6.92
2019-05-26T09:33:02.326Z,5.9
2019-05-26T09:34:02.662Z,6.52
2019-05-26T09:35:02.812Z,6.37
2019-05-26T09:36:03.295Z,6.99
2019-05-26T09:37:02.884Z,6.94
2019-05-26T09:38:02.656Z,6.57
2019-05-26T09:39:03.268Z,7.08
2019-05-26T09:40:02.823Z,6.79
2019-05-26T09:41:03.513Z,6.19
2019-05-26T09:42:02.863Z,6.55
2019-05-26T09:43:16.664Z,6.28
2019-05-26T09:44:03.200Z,6.15
2019-05-26T09:45:02.873Z,6.66
2019-05-26T09:46:03.403Z,6.03
2019-05-26T09:47:03.018Z,6.37
2019-05-26T09:48:03.382Z,6.16
2019-05-26T09:49:02.893Z,6.54
2019-05-26T09:50:03.070Z,6.3
2019-05-26T09:51:02.452Z,6.79
2019-05-26T09:52:03.147Z,6.67
2019-05-26T09:53:02.833Z,6.04
2019-05-26T09:54:03.450Z,6.04
2019-05-26T09:55:03.007Z,7.23
2019-05-26T09:56:02.753Z,7.23
2019-05-26T09:57:02.480Z,7.09
2019-05-26T09:58:02.907Z,8.18
2019-05-26T09:59:02.446Z,7.83
2019-05-26T10:00:03.047Z,7.95
2019-05-26T10:01:02.701Z,7.48
2019-05-26T10:02:03.303Z,6.99
2019-05-26T10:03:03.049Z,7.17
2019-05-26T10:04:02.528Z,7.32
2019-05-26T10:05:03.264Z,7.44
2019-05-26T10:06:02.439Z,6.86
2019-05-26T10:07:03.215Z,6.49
2019-05-26T10:08:02.644Z,7.12
2019-05-26T10:09:03.493Z,6.97
2019-05-26T10:10:03.301Z,7.1
2019-05-26T10:11:02.542Z,6.63
2019-05-26T10:12:03.068Z,5.82
2019-05-26T10:13:02.770Z,6.42
2019-05-26T10:14:03.221Z,5.99
2019-05-26T10:15:03.102Z,6.36
2019-05-26T10:16:03.468Z,6.49
2019-05-26T10:17:03.196Z,5.66
2019-05-26T10:18:02.724Z,5.55
2019-05-26T10:19:03.428Z,5.7
2019-05-26T10:20:02.849Z,4.84
2019-05-26T10:21:02.394Z,5.78
2019-05-26T10:22:03.242Z,5
2019-05-26T10:23:02.687Z,4.99
2019-05-26T10:24:03.478Z,4.62
2019-05-26T10:25:03.052Z,6.38
2019-05-26T10:26:02.489Z,5.02
2019-05-26T10:27:02.534Z,4.86
2019-05-26T10:28:03.338Z,5.82
2019-05-26T10:29:02.691Z,5.04
2019-05-26T10:30:03.324Z,4.65
2019-05-26T10:31:02.740Z,4.62
2019-05-26T10:32:03.412Z,4.71
2019-05-26T10:33:03.127Z,4.31
2019-05-26T10:34:02.926Z,4.32
2019-05-26T10:35:03.338Z,3.74
2019-05-26T10:36:02.796Z,4.48
2019-05-26T10:37:03.380Z,4.66
2019-05-26T10:38:02.958Z,4.12
2019-05-26T10:39:03.521Z,3.92
2019-05-26T10:40:03.451Z,3.46
2019-05-26T10:41:02.690Z,4.19
2019-05-26T10:42:02.524Z,4.02
2019-05-26T10:43:03.139Z,3.09
2019-05-26T10:44:02.577Z,3.11
2019-05-26T10:45:03.517Z,3.11
2019-05-26T10:46:03.291Z,3.38
2019-05-26T10:47:02.878Z,3.18
2019-05-26T10:48:02.586Z,2.96
2019-05-26T10:49:03.068Z,2.96
2019-05-26T10:50:02.967Z,4
2019-05-26T10:51:04.938Z,4
2019-05-26T10:52:03.024Z,3.21
2019-05-26T10:53:02.557Z,3.12
2019-05-26T10:54:02.466Z,3.12
2019-05-26T10:55:02.876Z,3.09
2019-05-26T10:56:02.834Z,2.93
2019-05-26T10:57:03.255Z,2.78
2019-05-26T10:58:03.312Z,3.17
2019-05-26T10:59:02.764Z,3.2
2019-05-26T11:00:03.478Z,3.46
2019-05-26T11:01:02.763Z,3.65
2019-05-26T11:02:03.316Z,3.86
2019-05-26T11:03:04.195Z,4.04
2019-05-26T11:04:03.360Z,3.76
2019-05-26T11:05:02.683Z,4.86
2019-05-26T11:06:02.619Z,4.06
2019-05-26T11:07:02.531Z,4.03
2019-05-26T11:08:02.340Z,4.6
2019-05-26T11:09:03.416Z,4.47
2019-05-26T11:10:02.983Z,5.26
2019-05-26T11:11:02.610Z,4.7
2019-05-26T11:12:03.020Z,5.53
2019-05-26T11:13:03.423Z,4.52
2019-05-26T11:14:03.870Z,4.82
2019-05-26T11:15:03.371Z,4.27
2019-05-26T11:16:03.012Z,4.38
2019-05-26T11:17:02.630Z,4.44
2019-05-26T11:18:03.253Z,4.72
2019-05-26T11:19:02.924Z,4.15
2019-05-26T11:20:02.713Z,4.61
2019-05-26T11:21:03.018Z,4.9
2019-05-26T11:22:02.834Z,3.99
2019-05-26T11:23:02.526Z,3.91
2019-05-26T11:24:03.462Z,4.84
2019-05-26T11:25:03.145Z,4.05
2019-05-26T11:26:02.532Z,4.78
2019-05-26T11:27:11.934Z,3.96
2019-05-26T11:28:02.613Z,4.72
2019-05-26T11:29:03.250Z,4.61
2019-05-26T11:30:02.891Z,4.29
2019-05-26T11:31:03.273Z,4.56
2019-05-26T11:32:02.814Z,3.68
2019-05-26T11:33:03.367Z,4.57
2019-05-26T11:34:02.908Z,3.15
2019-05-26T11:35:02.603Z,4.23
2019-05-26T11:36:03.207Z,3.82
2019-05-26T11:37:02.624Z,3.07
2019-05-26T11:38:03.344Z,3.66
2019-05-26T11:39:02.928Z,3.29
2019-05-26T11:40:03.472Z,3.26
2019-05-26T11:41:03.085Z,3.76
2019-05-26T11:42:14.067Z,3.59
2019-05-26T11:43:17.230Z,3.62
2019-05-26T11:44:18.344Z,3.61
2019-05-26T11:45:02.629Z,2.83
2019-05-26T11:46:03.200Z,2.75
2019-05-26T11:47:02.741Z,3.14
2019-05-26T11:48:03.388Z,2.84
2019-05-26T11:49:02.683Z,2.86
2019-05-26T11:50:02.495Z,3
2019-05-26T11:51:03.167Z,3.28
2019-05-26T11:52:02.726Z,3.25
2019-05-26T11:53:03.261Z,3.95
2019-05-26T11:54:03.004Z,3.39
2019-05-26T11:55:02.668Z,3.33
2019-05-26T11:56:03.373Z,3.24
2019-05-26T11:57:02.844Z,3.22
2019-05-26T11:58:03.412Z,3.73
2019-05-26T11:59:03.104Z,3.5
2019-05-26T12:00:03.490Z,3.62
2019-05-26T12:01:02.624Z,4.25
2019-05-26T12:02:03.234Z,3.04
2019-05-26T12:03:03.063Z,3.59
2019-05-26T12:04:02.486Z,2.99
2019-05-26T12:05:02.892Z,3.39
2019-05-26T12:06:02.862Z,6.52
2019-05-26T12:07:04.745Z,6.52
2019-05-26T12:08:03.084Z,3.61
2019-05-26T12:09:02.920Z,3.48
2019-05-26T12:10:03.498Z,3.37
2019-05-26T12:11:03.092Z,3.27
2019-05-26T12:12:02.687Z,3.85
2019-05-26T12:13:03.054Z,3.22
2019-05-26T12:14:03.141Z,3.22
2019-05-26T12:15:02.564Z,3.66
2019-05-26T12:16:03.080Z,3.56
2019-05-26T12:17:02.833Z,3.56
2019-05-26T12:18:02.764Z,3.56
2019-05-26T12:19:02.428Z,3.91
2019-05-26T12:20:05.660Z,3.53
2019-05-26T12:21:03.470Z,3.57
2019-05-26T12:22:02.978Z,3.41
2019-05-26T12:23:03.378Z,3.63
2019-05-26T12:24:02.877Z,4.01
2019-05-26T12:25:02.523Z,4.06
2019-05-26T12:26:03.268Z,3.95
2019-05-26T12:27:02.851Z,3.49
2019-05-26T12:28:03.202Z,3.32
2019-05-26T12:29:02.752Z,3.15
2019-05-26T12:30:03.286Z,3.44
2019-05-26T12:31:03.170Z,3.24
2019-05-26T12:32:02.835Z,3.06
2019-05-26T12:33:02.505Z,5.23
2019-05-26T12:34:03.067Z,3.61
2019-05-26T12:35:02.565Z,3
2019-05-26T12:36:03.203Z,3.23
2019-05-26T12:37:02.823Z,3.54
2019-05-26T12:38:02.555Z,3.52
2019-05-26T12:39:03.095Z,3.47
2019-05-26T12:40:02.836Z,2.95
2019-05-26T12:41:03.037Z,3.01
2019-05-26T12:42:02.417Z,3.59
2019-05-26T12:43:03.273Z,3.47
2019-05-26T12:44:02.925Z,3.29
2019-05-26T12:45:03.350Z,3.36
2019-05-26T12:46:02.620Z,4.57
2019-05-26T12:47:03.300Z,3.64
2019-05-26T12:48:02.946Z,3.53
2019-05-26T12:49:02.626Z,3.46
2019-05-26T12:50:03.500Z,4.34
2019-05-26T12:51:02.918Z,3.54
2019-05-26T12:52:02.515Z,3.39
2019-05-26T12:53:03.012Z,3.79
2019-05-26T12:54:03.458Z,3.33
2019-05-26T12:55:03.199Z,3.11
2019-05-26T12:56:02.990Z,3.06
2019-05-26T12:57:03.252Z,2.71
2019-05-26T12:58:03.084Z,3.48
2019-05-26T12:59:02.790Z,2.9
2019-05-26T13:00:03.021Z,2.5
2019-05-26T13:01:02.758Z,2.95
2019-05-26T13:02:02.379Z,3.01
2019-05-26T13:03:03.530Z,3.02
2019-05-26T13:04:02.918Z,3.16
2019-05-26T13:05:03.385Z,3.3
2019-05-26T13:06:03.070Z,2.64
2019-05-26T13:07:02.987Z,2.58
2019-05-26T13:08:02.600Z,2.59
2019-05-26T13:09:03.178Z,3.02
2019-05-26T13:10:02.866Z,2.56
2019-05-26T13:11:02.511Z,2.59
2019-05-26T13:12:03.035Z,2.59